createdAt,value
2022-11-06T00:00:48.933Z,57.01
2022-11-06T00:02:50.566Z,56.96
2022-11-06T00:04:52.075Z,56.93
2022-11-06T00:06:53.540Z,57.11
2022-11-06T00:08:55.572Z,56.64
2022-11-06T00:10:57.282Z,56.94
2022-11-06T00:13:00.160Z,56.89
2022-11-06T00:15:01.658Z,56.57
2022-11-06T00:17:03.175Z,56.84
2022-11-06T00:19:05.510Z,56.85
2022-11-06T00:21:12.699Z,56.75
2022-11-06T00:23:14.211Z,56.46
2022-11-06T00:25:15.820Z,56.64
2022-11-06T00:27:17.469Z,56.66
2022-11-06T00:29:18.988Z,56.39
2022-11-06T00:31:23.141Z,56.37
2022-11-06T00:33:24.705Z,56.25
2022-11-06T00:35:26.101Z,56.67
2022-11-06T00:37:27.765Z,56.60
2022-11-06T00:39:29.270Z,56.42
2022-11-06T00:41:31.353Z,56.18
2022-11-06T00:43:33.579Z,56.04
2022-11-06T00:45:35.068Z,56.38
2022-11-06T00:47:36.544Z,56.07
2022-11-06T00:49:39.077Z,56.34
2022-11-06T00:51:40.705Z,56.33
2022-11-06T00:53:43.401Z,56.10
2022-11-06T00:55:44.986Z,56.13
2022-11-06T00:57:46.503Z,56.11
2022-11-06T00:59:48.207Z,56.03
2022-11-06T01:01:49.945Z,56.23
2022-11-06T01:04:22.094Z,56.15
2022-11-06T01:06:27.072Z,56.08
2022-11-06T01:08:28.556Z,56.28
2022-11-06T01:10:30.028Z,55.95
2022-11-06T01:12:32.687Z,56.11
2022-11-06T01:14:34.166Z,56.34
2022-11-06T01:16:35.745Z,56.23
2022-11-06T01:18:38.497Z,55.93
2022-11-06T01:20:40.099Z,56.08
2022-11-06T01:22:41.549Z,55.73
2022-11-06T01:24:43.170Z,56.16
2022-11-06T01:26:58.775Z,55.86
2022-11-06T01:29:08.798Z,56.24
2022-11-06T01:31:13.650Z,56.12
2022-11-06T01:33:15.225Z,55.73
2022-11-06T01:35:16.797Z,55.96
2022-11-06T01:37:18.499Z,55.86
2022-11-06T01:39:20.084Z,56.20
2022-11-06T01:41:37.286Z,55.95
2022-11-06T01:43:56.930Z,55.97
2022-11-06T01:45:58.463Z,55.96
2022-11-06T01:48:00.453Z,56.44
2022-11-06T01:50:08.832Z,56.14
2022-11-06T01:52:13.103Z,56.28
2022-11-06T01:54:15.723Z,56.38
2022-11-06T01:56:19.251Z,56.17
2022-11-06T01:58:23.578Z,56.03
2022-11-06T02:00:26.116Z,56.19
2022-11-06T02:02:27.922Z,56.05
2022-11-06T02:04:34.478Z,56.04
2022-11-06T02:06:36.895Z,56.51
2022-11-06T02:08:38.391Z,56.28
2022-11-06T02:10:41.120Z,56.41
2022-11-06T02:12:42.556Z,56.19
2022-11-06T02:15:11.271Z,56.45
2022-11-06T02:17:24.605Z,56.34
2022-11-06T02:19:53.456Z,56.74
2022-11-06T02:22:04.181Z,56.68
2022-11-06T02:24:42.918Z,56.77
2022-11-06T02:27:17.067Z,56.32
2022-11-06T02:29:29.352Z,56.36
2022-11-06T02:31:35.413Z,56.75
2022-11-06T02:33:45.844Z,56.68
2022-11-06T02:35:56.439Z,56.55
2022-11-06T02:38:07.035Z,56.25
2022-11-06T02:40:11.098Z,56.21
2022-11-06T02:42:17.458Z,56.16
2022-11-06T02:44:24.344Z,56.11
2022-11-06T02:46:35.678Z,56.39
2022-11-06T02:48:44.620Z,56.13
2022-11-06T02:50:50.406Z,56.39
2022-11-06T02:53:05.894Z,56.34
2022-11-06T02:55:12.080Z,56.13
2022-11-06T02:57:17.051Z,55.96
2022-11-06T02:59:26.623Z,55.86
2022-11-06T03:01:34.443Z,56.15
2022-11-06T03:03:41.944Z,56.28
2022-11-06T03:05:52.923Z,55.99
2022-11-06T03:08:02.302Z,55.98
2022-11-06T03:10:06.477Z,56.11
2022-11-06T03:12:29.639Z,55.87
2022-11-06T03:15:00.109Z,55.78
2022-11-06T03:17:09.984Z,56.23
2022-11-06T03:19:21.192Z,56.16
2022-11-06T03:21:38.273Z,55.92
2022-11-06T03:23:49.163Z,55.91
2022-11-06T03:25:59.703Z,56.07
2022-11-06T03:28:23.397Z,56.03
2022-11-06T03:30:25.158Z,56.08
2022-11-06T03:32:32.410Z,55.84
2022-11-06T03:34:44.389Z,55.85
2022-11-06T03:36:53.764Z,55.85
2022-11-06T03:39:04.700Z,56.10
2022-11-06T03:41:16.325Z,55.75
2022-11-06T03:43:22.132Z,56.09
2022-11-06T03:45:26.592Z,55.93
2022-11-06T03:47:40.549Z,55.71
2022-11-06T03:49:50.832Z,56.06
2022-11-06T03:52:06.174Z,55.81
2022-11-06T03:54:17.125Z,55.93
2022-11-06T03:56:27.684Z,55.78
2022-11-06T03:58:33.895Z,56.16
2022-11-06T04:00:38.580Z,55.75
2022-11-06T04:02:45.596Z,56.13
2022-11-06T04:04:57.161Z,55.73
2022-11-06T04:07:05.726Z,56.07
2022-11-06T04:09:29.289Z,56.07
2022-11-06T04:11:52.937Z,56.12
2022-11-06T04:14:00.837Z,56.02
2022-11-06T04:16:02.666Z,56.04
2022-11-06T04:18:11.686Z,56.27
2022-11-06T04:20:38.304Z,56.36
2022-11-06T04:22:58.563Z,56.31
2022-11-06T04:25:37.584Z,56.40
2022-11-06T04:28:10.339Z,56.32
2022-11-06T04:30:15.617Z,56.59
2022-11-06T04:32:36.663Z,56.47
2022-11-06T04:34:50.575Z,56.27
2022-11-06T04:37:06.418Z,56.58
2022-11-06T04:39:16.175Z,56.60
2022-11-06T04:41:39.505Z,56.78
2022-11-06T04:43:54.260Z,56.78
2022-11-06T04:45:59.976Z,56.67
2022-11-06T04:48:04.003Z,56.74
2022-11-06T04:50:09.093Z,56.92
2022-11-06T04:52:18.121Z,56.97
2022-11-06T04:54:19.861Z,57.16
2022-11-06T04:56:29.718Z,57.24
2022-11-06T04:58:31.950Z,57.15
2022-11-06T05:00:34.062Z,57.18
2022-11-06T05:02:35.630Z,57.23
2022-11-06T05:04:37.140Z,57.39
2022-11-06T05:06:38.883Z,57.49
2022-11-06T05:08:40.618Z,57.16
2022-11-06T05:10:43.659Z,57.47
2022-11-06T05:12:47.559Z,57.82
2022-11-06T05:14:49.149Z,57.70
2022-11-06T05:16:50.704Z,57.56
2022-11-06T05:18:52.140Z,57.85
2022-11-06T05:21:14.095Z,57.60
2022-11-06T05:23:15.613Z,57.53
2022-11-06T05:25:17.273Z,57.92
2022-11-06T05:27:18.826Z,57.98
2022-11-06T05:29:20.273Z,57.75
2022-11-06T05:31:22.148Z,58.01
2022-11-06T05:33:23.831Z,58.17
2022-11-06T05:35:25.399Z,57.66
2022-11-06T05:37:27.757Z,57.81
2022-11-06T05:39:29.190Z,57.90
2022-11-06T05:41:30.752Z,58.04
2022-11-06T05:43:33.598Z,57.88
2022-11-06T05:45:35.185Z,58.26
2022-11-06T05:47:40.414Z,57.97
2022-11-06T05:49:41.857Z,58.10
2022-11-06T05:51:43.629Z,57.78
2022-11-06T05:53:45.152Z,58.03
2022-11-06T05:55:47.236Z,58.19
2022-11-06T05:57:48.795Z,58.26
2022-11-06T05:59:50.290Z,58.15
2022-11-06T06:01:51.859Z,57.97
2022-11-06T06:03:53.489Z,58.19
2022-11-06T06:05:55.215Z,58.03
2022-11-06T06:07:56.702Z,58.11
2022-11-06T06:09:58.346Z,58.44
2022-11-06T06:11:59.819Z,58.38
2022-11-06T06:14:01.766Z,57.97
2022-11-06T06:16:03.771Z,57.98
2022-11-06T06:18:06.135Z,58.12
2022-11-06T06:20:08.410Z,58.06
2022-11-06T06:22:10.498Z,58.44
2022-11-06T06:24:12.038Z,58.04
2022-11-06T06:26:13.679Z,58.23
2022-11-06T06:28:15.581Z,58.49
2022-11-06T06:30:18.030Z,58.24
2022-11-06T06:32:19.535Z,58.82
2022-11-06T06:34:21.046Z,58.67
2022-11-06T06:36:22.601Z,58.54
2022-11-06T06:38:25.848Z,58.11
2022-11-06T06:40:29.709Z,58.69
2022-11-06T06:42:31.584Z,58.27
2022-11-06T06:44:33.156Z,58.79
2022-11-06T06:46:34.684Z,58.40
2022-11-06T06:48:36.246Z,58.42
2022-11-06T06:50:38.285Z,58.70
2022-11-06T06:52:39.822Z,58.69
2022-11-06T06:54:41.321Z,58.80
2022-11-06T06:56:43.140Z,58.75
2022-11-06T06:58:44.563Z,58.94
2022-11-06T07:00:47.055Z,58.59
2022-11-06T07:02:48.593Z,58.62
2022-11-06T07:04:50.098Z,58.68
2022-11-06T07:06:55.044Z,58.72
2022-11-06T07:08:56.638Z,58.94
2022-11-06T07:11:05.039Z,58.64
2022-11-06T07:13:06.568Z,58.35
2022-11-06T07:15:08.679Z,58.83
2022-11-06T07:17:10.241Z,58.63
2022-11-06T07:19:11.718Z,58.77
2022-11-06T07:21:13.374Z,58.24
2022-11-06T07:23:14.790Z,58.90
2022-11-06T07:25:16.267Z,58.66
2022-11-06T07:27:17.908Z,58.65
2022-11-06T07:29:19.419Z,58.97
2022-11-06T07:31:20.990Z,59.02
2022-11-06T07:33:22.538Z,58.86
2022-11-06T07:35:23.996Z,58.94
2022-11-06T07:37:25.639Z,58.66
2022-11-06T07:39:27.109Z,58.73
2022-11-06T07:41:28.690Z,59.10
2022-11-06T07:43:30.510Z,58.89
2022-11-06T07:45:32.555Z,58.77
2022-11-06T07:47:33.978Z,59.33
2022-11-06T07:49:35.463Z,59.09
2022-11-06T07:51:37.002Z,59.14
2022-11-06T07:53:39.152Z,58.79
2022-11-06T07:55:48.236Z,58.99
2022-11-06T07:57:49.745Z,59.20
2022-11-06T07:59:51.342Z,59.18
2022-11-06T08:01:53.075Z,59.19
2022-11-06T08:03:54.626Z,59.13
2022-11-06T08:05:57.597Z,58.94
2022-11-06T08:07:59.147Z,59.18
2022-11-06T08:10:00.708Z,58.77
2022-11-06T08:12:02.695Z,59.19
2022-11-06T08:14:04.273Z,59.01
2022-11-06T08:16:11.804Z,59.00
2022-11-06T08:18:13.727Z,59.07
2022-11-06T08:20:15.611Z,59.06
2022-11-06T08:22:17.276Z,58.96
2022-11-06T08:24:21.889Z,58.88
2022-11-06T08:26:24.112Z,58.92
2022-11-06T08:28:26.303Z,58.88
2022-11-06T08:30:29.471Z,59.25
2022-11-06T08:32:31.019Z,58.84
2022-11-06T08:34:35.614Z,58.99
2022-11-06T08:36:40.825Z,59.04
2022-11-06T08:38:42.953Z,58.96
2022-11-06T08:40:48.149Z,58.92
2022-11-06T08:42:52.411Z,59.34
2022-11-06T08:44:54.060Z,59.14
2022-11-06T08:46:55.846Z,59.18
2022-11-06T08:48:57.443Z,59.37
2022-11-06T08:50:59.150Z,59.40
2022-11-06T08:53:04.096Z,59.14
2022-11-06T08:55:05.831Z,59.30
2022-11-06T08:57:07.431Z,59.54
2022-11-06T08:59:09.143Z,59.37
2022-11-06T09:01:10.836Z,59.56
2022-11-06T09:03:15.462Z,59.62
2022-11-06T09:05:17.439Z,59.23
2022-11-06T09:07:19.016Z,59.45
2022-11-06T09:09:20.615Z,59.43
2022-11-06T09:11:25.441Z,58.79
2022-11-06T09:13:27.110Z,58.89
2022-11-06T09:15:28.835Z,59.01
2022-11-06T09:17:30.483Z,58.78
2022-11-06T09:19:32.159Z,58.86
2022-11-06T09:21:33.811Z,58.83
2022-11-06T09:23:38.351Z,59.12
2022-11-06T09:25:40.106Z,58.80
2022-11-06T09:27:42.818Z,58.92
2022-11-06T09:29:45.662Z,58.85
2022-11-06T09:31:47.395Z,59.15
2022-11-06T09:33:49.157Z,59.11
2022-11-06T09:35:50.781Z,59.17
2022-11-06T09:37:52.576Z,59.01
2022-11-06T09:40:06.274Z,59.21
2022-11-06T09:42:35.828Z,59.03
2022-11-06T09:44:55.141Z,59.21
2022-11-06T09:46:59.911Z,58.99
2022-11-06T09:49:20.372Z,59.07
2022-11-06T09:51:29.959Z,59.22
2022-11-06T09:53:38.033Z,59.41
2022-11-06T09:55:43.705Z,59.21
2022-11-06T09:57:55.252Z,59.33
2022-11-06T09:59:58.027Z,59.16
2022-11-06T10:02:01.759Z,59.37
2022-11-06T10:04:05.411Z,59.27
2022-11-06T10:06:07.197Z,59.31
2022-11-06T10:08:22.146Z,59.13
2022-11-06T10:10:30.962Z,59.31
2022-11-06T10:12:32.492Z,59.30
2022-11-06T10:14:58.886Z,59.36
2022-11-06T10:17:35.560Z,59.59
2022-11-06T10:19:46.262Z,59.36
2022-11-06T10:22:18.880Z,59.35
2022-11-06T10:24:28.508Z,59.42
2022-11-06T10:26:49.179Z,59.63
2022-11-06T10:29:05.324Z,59.38
2022-11-06T10:31:25.266Z,59.55
2022-11-06T10:33:27.013Z,59.27
2022-11-06T10:35:36.079Z,59.24
2022-11-06T10:37:52.751Z,59.45
2022-11-06T10:39:58.219Z,59.18
2022-11-06T10:42:09.772Z,59.30
2022-11-06T10:44:21.745Z,59.14
2022-11-06T10:46:37.206Z,59.34
2022-11-06T10:48:51.783Z,59.11
2022-11-06T10:51:18.681Z,59.38
2022-11-06T10:53:38.914Z,59.13
2022-11-06T10:56:11.001Z,59.17
2022-11-06T10:58:26.879Z,59.21
2022-11-06T11:00:28.639Z,59.03
2022-11-06T11:02:34.050Z,59.27
2022-11-06T11:04:35.954Z,59.05
2022-11-06T11:06:41.285Z,59.27
2022-11-06T11:08:45.900Z,59.33
2022-11-06T11:11:03.974Z,59.28
2022-11-06T11:13:08.851Z,59.30
2022-11-06T11:15:14.995Z,59.46
2022-11-06T11:17:20.668Z,59.71
2022-11-06T11:19:26.936Z,59.51
2022-11-06T11:21:32.809Z,59.47
2022-11-06T11:23:34.538Z,59.39
2022-11-06T11:25:36.516Z,59.46
2022-11-06T11:27:46.114Z,59.59
2022-11-06T11:29:50.443Z,59.44
2022-11-06T11:31:58.922Z,59.41
2022-11-06T11:34:10.810Z,59.34
2022-11-06T11:36:12.472Z,59.24
2022-11-06T11:38:16.638Z,59.29
2022-11-06T11:40:35.779Z,59.26
2022-11-06T11:42:39.628Z,59.23
2022-11-06T11:44:41.195Z,59.05
2022-11-06T11:46:51.526Z,59.13
2022-11-06T11:48:57.954Z,58.90
2022-11-06T11:51:13.246Z,59.17
2022-11-06T11:53:22.098Z,59.03
2022-11-06T11:55:28.074Z,58.99
2022-11-06T11:57:30.608Z,58.77
2022-11-06T11:59:44.356Z,58.98
2022-11-06T12:01:46.728Z,58.85
2022-11-06T12:03:52.482Z,58.89
2022-11-06T12:06:04.214Z,58.80
2022-11-06T12:08:12.570Z,59.13
2022-11-06T12:10:30.839Z,59.60
2022-11-06T12:12:34.561Z,59.55
2022-11-06T12:14:40.014Z,59.68
2022-11-06T12:16:42.621Z,59.40
2022-11-06T12:18:48.524Z,59.41
2022-11-06T12:21:03.450Z,59.41
2022-11-06T12:23:24.803Z,59.12
2022-11-06T12:25:34.232Z,59.12
2022-11-06T12:27:42.067Z,59.03
2022-11-06T12:30:01.372Z,58.86
2022-11-06T12:32:21.421Z,58.72
2022-11-06T12:34:31.093Z,58.15
2022-11-06T12:36:39.478Z,58.10
2022-11-06T12:39:01.911Z,57.88
2022-11-06T12:41:16.532Z,57.74
2022-11-06T12:43:37.514Z,57.51
2022-11-06T12:46:04.303Z,57.21
2022-11-06T12:48:29.549Z,57.36
2022-11-06T12:51:12.490Z,57.19
2022-11-06T12:53:35.216Z,57.15
2022-11-06T12:55:58.894Z,57.15
2022-11-06T12:58:17.369Z,57.18
2022-11-06T13:00:21.872Z,57.07
2022-11-06T13:03:00.502Z,56.85
2022-11-06T13:05:14.015Z,57.11
2022-11-06T13:07:43.458Z,57.03
2022-11-06T13:10:26.889Z,56.83
2022-11-06T13:12:46.917Z,57.04
2022-11-06T13:15:38.364Z,56.78
2022-11-06T13:17:52.063Z,57.10
2022-11-06T13:20:27.086Z,56.91
2022-11-06T13:22:49.005Z,57.19
2022-11-06T13:25:17.338Z,57.20
2022-11-06T13:27:38.571Z,57.38
2022-11-06T13:29:42.739Z,57.57
2022-11-06T13:31:55.701Z,57.62
2022-11-06T13:34:03.825Z,57.69
2022-11-06T13:36:07.417Z,57.65
2022-11-06T13:38:18.162Z,57.77
2022-11-06T13:40:43.380Z,57.49
2022-11-06T13:43:11.975Z,57.59
2022-11-06T13:45:18.112Z,57.59
2022-11-06T13:47:34.103Z,57.49
2022-11-06T13:49:59.458Z,57.34
2022-11-06T13:52:11.117Z,57.21
2022-11-06T13:54:20.889Z,56.99
2022-11-06T13:56:47.102Z,56.75
2022-11-06T13:58:57.595Z,56.42
2022-11-06T14:01:39.929Z,56.40
2022-11-06T14:03:41.671Z,56.47
2022-11-06T14:05:52.347Z,56.04
2022-11-06T14:07:59.017Z,56.22
2022-11-06T14:10:01.016Z,56.28
2022-11-06T14:12:10.026Z,56.03
2022-11-06T14:14:21.840Z,56.11
2022-11-06T14:16:26.471Z,56.40
2022-11-06T14:18:28.696Z,56.22
2022-11-06T14:20:36.709Z,55.94
2022-11-06T14:22:38.608Z,56.13
2022-11-06T14:24:42.119Z,56.13
2022-11-06T14:26:45.044Z,55.92
2022-11-06T14:28:46.722Z,56.13
2022-11-06T14:31:11.548Z,56.08
2022-11-06T14:33:31.186Z,55.95
2022-11-06T14:35:35.747Z,56.12
2022-11-06T14:37:43.137Z,56.07
2022-11-06T14:39:56.680Z,56.21
2022-11-06T14:41:59.428Z,56.16
2022-11-06T14:44:12.556Z,56.29
2022-11-06T14:46:22.594Z,56.18
2022-11-06T14:48:38.563Z,56.08
2022-11-06T14:50:41.525Z,56.13
2022-11-06T14:52:52.755Z,55.81
2022-11-06T14:55:05.678Z,55.81
2022-11-06T14:57:15.337Z,56.08
2022-11-06T14:59:22.667Z,55.85
2022-11-06T15:01:31.363Z,55.74
2022-11-06T15:03:55.021Z,55.60
2022-11-06T15:06:05.145Z,55.69
2022-11-06T15:08:06.714Z,55.72
2022-11-06T15:10:42.802Z,55.49
2022-11-06T15:13:04.997Z,55.79
2022-11-06T15:15:18.741Z,55.72
2022-11-06T15:17:21.855Z,55.86
2022-11-06T15:19:31.362Z,55.83
2022-11-06T15:21:42.323Z,55.81
2022-11-06T15:24:04.362Z,55.71
2022-11-06T15:26:32.338Z,55.60
2022-11-06T15:28:49.240Z,55.67
2022-11-06T15:30:58.972Z,55.80
2022-11-06T15:33:05.392Z,55.68
2022-11-06T15:35:14.144Z,55.75
2022-11-06T15:37:32.880Z,55.62
2022-11-06T15:39:47.849Z,55.62
2022-11-06T15:41:52.790Z,55.67
2022-11-06T15:43:55.980Z,55.67
2022-11-06T15:46:27.761Z,55.59
2022-11-06T15:48:29.468Z,55.68
2022-11-06T15:50:38.538Z,55.63
2022-11-06T15:52:41.204Z,55.73
2022-11-06T15:54:48.697Z,55.76
2022-11-06T15:56:50.555Z,55.76
2022-11-06T15:59:14.636Z,55.73
2022-11-06T16:01:31.987Z,55.65
2022-11-06T16:03:48.320Z,55.52
2022-11-06T16:05:54.085Z,55.74
2022-11-06T16:07:57.589Z,55.74
2022-11-06T16:09:59.435Z,55.72
2022-11-06T16:12:04.487Z,55.54
2022-11-06T16:14:16.773Z,55.49
2022-11-06T16:16:42.572Z,55.54
2022-11-06T16:19:00.808Z,55.63
2022-11-06T16:21:20.178Z,55.64
2022-11-06T16:23:37.627Z,55.69
2022-11-06T16:25:41.592Z,55.66
2022-11-06T16:27:44.398Z,55.71
2022-11-06T16:29:58.207Z,55.61
2022-11-06T16:32:06.719Z,55.76
2022-11-06T16:34:35.120Z,55.69
2022-11-06T16:37:18.249Z,55.59
2022-11-06T16:39:40.030Z,55.63
2022-11-06T16:42:29.984Z,55.66
2022-11-06T16:44:46.138Z,55.54
2022-11-06T16:47:15.923Z,55.81
2022-11-06T16:49:37.817Z,55.92
2022-11-06T16:51:39.536Z,55.77
2022-11-06T16:54:01.803Z,55.94
2022-11-06T16:56:06.436Z,56.03
2022-11-06T16:58:16.026Z,55.97
2022-11-06T17:00:20.971Z,56.06
2022-11-06T17:02:29.175Z,56.00
2022-11-06T17:04:30.931Z,56.08
2022-11-06T17:06:37.099Z,56.01
2022-11-06T17:08:44.267Z,56.14
2022-11-06T17:10:50.795Z,55.95
2022-11-06T17:12:54.190Z,56.11
2022-11-06T17:14:55.964Z,55.85
2022-11-06T17:17:04.091Z,56.10
2022-11-06T17:19:05.662Z,56.02
2022-11-06T17:21:18.788Z,56.13
2022-11-06T17:23:21.489Z,56.04
2022-11-06T17:25:23.524Z,56.16
2022-11-06T17:27:25.032Z,55.97
2022-11-06T17:29:26.800Z,55.94
2022-11-06T17:31:28.539Z,56.14
2022-11-06T17:33:30.268Z,55.89
2022-11-06T17:35:33.925Z,56.14
2022-11-06T17:37:36.560Z,56.13
2022-11-06T17:39:38.257Z,56.36
2022-11-06T17:41:40.381Z,56.28
2022-11-06T17:43:42.215Z,56.31
2022-11-06T17:46:00.238Z,56.45
2022-11-06T17:48:04.357Z,56.39
2022-11-06T17:50:06.685Z,56.37
2022-11-06T17:52:08.285Z,56.61
2022-11-06T17:54:11.163Z,56.21
2022-11-06T17:56:12.820Z,56.44
2022-11-06T17:58:14.904Z,56.24
2022-11-06T18:00:17.060Z,56.42
2022-11-06T18:02:40.798Z,56.42
2022-11-06T18:04:41.132Z,56.55
2022-11-06T18:06:53.842Z,56.63
2022-11-06T18:08:57.144Z,56.48
2022-11-06T18:10:59.103Z,56.58
2022-11-06T18:13:00.719Z,56.63
2022-11-06T18:15:02.267Z,56.48
2022-11-06T18:17:03.920Z,56.49
2022-11-06T18:19:09.836Z,56.61
2022-11-06T18:21:11.461Z,56.69
2022-11-06T18:23:13.474Z,56.85
2022-11-06T18:25:15.064Z,56.87
2022-11-06T18:27:16.925Z,56.72
2022-11-06T18:29:18.967Z,56.65
2022-11-06T18:31:21.216Z,56.68
2022-11-06T18:33:25.675Z,56.77
2022-11-06T18:35:27.401Z,56.74
2022-11-06T18:37:29.099Z,56.53
2022-11-06T18:39:33.780Z,56.82
2022-11-06T18:41:35.710Z,56.92
2022-11-06T18:43:37.934Z,56.77
2022-11-06T18:45:40.550Z,56.79
2022-11-06T18:47:42.175Z,56.72
2022-11-06T18:49:43.854Z,56.72
2022-11-06T18:51:51.448Z,56.68
2022-11-06T18:53:58.216Z,56.86
2022-11-06T18:56:00.851Z,56.73
2022-11-06T18:58:07.247Z,56.93
2022-11-06T19:00:09.631Z,56.74
2022-11-06T19:02:11.558Z,56.94
2022-11-06T19:04:13.814Z,57.11
2022-11-06T19:06:21.367Z,57.14
2022-11-06T19:08:24.209Z,57.02
2022-11-06T19:10:28.799Z,57.01
2022-11-06T19:12:30.338Z,57.27
2022-11-06T19:14:32.040Z,57.11
2022-11-06T19:16:33.853Z,56.85
2022-11-06T19:18:37.836Z,57.00
2022-11-06T19:20:41.027Z,57.06
2022-11-06T19:22:42.786Z,57.03
2022-11-06T19:24:44.389Z,57.28
2022-11-06T19:26:47.755Z,57.04
2022-11-06T19:28:50.885Z,57.11
2022-11-06T19:30:53.408Z,56.91
2022-11-06T19:32:55.199Z,57.07
2022-11-06T19:34:57.008Z,57.28
2022-11-06T19:36:58.815Z,56.79
2022-11-06T19:39:00.936Z,57.28
2022-11-06T19:41:05.003Z,57.36
2022-11-06T19:43:10.883Z,57.29
2022-11-06T19:45:12.716Z,57.38
2022-11-06T19:47:14.335Z,57.16
2022-11-06T19:49:24.193Z,57.46
2022-11-06T19:51:27.435Z,57.13
2022-11-06T19:53:29.317Z,57.31
2022-11-06T19:55:39.977Z,57.22
2022-11-06T19:57:41.880Z,57.30
2022-11-06T19:59:45.892Z,57.49
2022-11-06T20:01:49.028Z,57.62
2022-11-06T20:03:50.901Z,57.37
2022-11-06T20:05:55.749Z,57.61
2022-11-06T20:07:57.404Z,57.51
2022-11-06T20:10:02.150Z,57.42
2022-11-06T20:12:04.574Z,57.48
2022-11-06T20:14:06.604Z,57.45
2022-11-06T20:16:19.960Z,57.49
2022-11-06T20:18:21.701Z,57.51
2022-11-06T20:20:23.449Z,57.77
2022-11-06T20:22:26.829Z,57.85
2022-11-06T20:24:28.330Z,57.66
2022-11-06T20:26:29.948Z,57.92
2022-11-06T20:28:31.628Z,57.77
2022-11-06T20:30:33.354Z,57.80
2022-11-06T20:32:35.817Z,57.98
2022-11-06T20:34:37.776Z,57.88
2022-11-06T20:36:39.591Z,58.00
2022-11-06T20:38:42.367Z,58.08
2022-11-06T20:40:44.076Z,57.98
2022-11-06T20:42:45.823Z,57.96
2022-11-06T20:44:47.527Z,57.96
2022-11-06T20:46:49.472Z,58.17
2022-11-06T20:48:52.060Z,57.92
2022-11-06T20:51:02.400Z,57.73
2022-11-06T20:53:04.579Z,58.11
2022-11-06T20:55:06.884Z,57.84
2022-11-06T20:57:08.353Z,57.86
2022-11-06T20:59:10.243Z,57.93
2022-11-06T21:01:20.694Z,57.94
2022-11-06T21:03:23.655Z,57.83
2022-11-06T21:05:28.177Z,57.77
2022-11-06T21:07:29.848Z,57.89
2022-11-06T21:09:34.664Z,58.08
2022-11-06T21:11:36.700Z,57.92
2022-11-06T21:13:40.675Z,58.02
2022-11-06T21:15:42.768Z,58.21
2022-11-06T21:17:46.930Z,58.13
2022-11-06T21:19:48.600Z,57.92
2022-11-06T21:21:51.199Z,58.26
2022-11-06T21:23:56.168Z,58.40
2022-11-06T21:25:57.888Z,58.15
2022-11-06T21:28:00.091Z,57.97
2022-11-06T21:30:04.881Z,58.26
2022-11-06T21:32:07.591Z,58.28
2022-11-06T21:34:09.218Z,58.35
2022-11-06T21:36:22.753Z,58.19
2022-11-06T21:38:24.452Z,58.12
2022-11-06T21:40:26.772Z,58.25
2022-11-06T21:42:28.399Z,58.27
2022-11-06T21:44:30.115Z,58.42
2022-11-06T21:46:32.424Z,58.14
2022-11-06T21:48:47.999Z,58.33
2022-11-06T21:50:51.013Z,58.29
2022-11-06T21:53:12.090Z,58.26
2022-11-06T21:55:34.069Z,58.12
2022-11-06T21:57:40.682Z,58.16
2022-11-06T21:59:43.752Z,58.32
2022-11-06T22:01:45.710Z,58.50
2022-11-06T22:03:47.888Z,58.29
2022-11-06T22:05:49.638Z,58.32
2022-11-06T22:07:51.243Z,58.49
2022-11-06T22:09:52.873Z,58.34
2022-11-06T22:11:54.457Z,58.43
2022-11-06T22:14:05.220Z,58.24
2022-11-06T22:16:08.647Z,58.33
2022-11-06T22:18:13.690Z,58.29
2022-11-06T22:20:23.066Z,58.57
2022-11-06T22:22:25.081Z,58.40
2022-11-06T22:24:26.674Z,58.42
2022-11-06T22:26:33.497Z,58.49
2022-11-06T22:28:35.392Z,58.65
2022-11-06T22:30:37.054Z,58.54
2022-11-06T22:32:38.627Z,58.48
2022-11-06T22:34:40.285Z,58.45
2022-11-06T22:36:42.010Z,58.38
2022-11-06T22:38:45.074Z,58.55
2022-11-06T22:40:54.705Z,58.45
2022-11-06T22:42:58.937Z,58.37
2022-11-06T22:45:00.884Z,58.46
2022-11-06T22:47:03.008Z,58.61
2022-11-06T22:49:11.469Z,58.45
2022-11-06T22:51:19.137Z,58.26
2022-11-06T22:53:21.170Z,58.28
2022-11-06T22:55:22.970Z,58.59
2022-11-06T22:57:24.660Z,58.64
2022-11-06T22:59:29.404Z,58.55
2022-11-06T23:01:41.261Z,58.56
2022-11-06T23:03:43.780Z,58.56
2022-11-06T23:05:45.508Z,58.49
2022-11-06T23:07:49.536Z,58.68
2022-11-06T23:09:51.289Z,58.47
2022-11-06T23:11:53.201Z,58.44
2022-11-06T23:13:58.919Z,58.48
2022-11-06T23:16:04.270Z,58.60
2022-11-06T23:18:07.361Z,58.60
2022-11-06T23:20:09.562Z,58.47
2022-11-06T23:22:30.110Z,58.51
2022-11-06T23:24:32.921Z,58.41
2022-11-06T23:26:40.169Z,58.44
2022-11-06T23:28:51.014Z,58.65
2022-11-06T23:31:05.497Z,58.23
2022-11-06T23:33:10.524Z,58.50
2022-11-06T23:35:22.625Z,58.37
2022-11-06T23:37:33.807Z,58.65
2022-11-06T23:39:44.961Z,58.52
2022-11-06T23:41:49.110Z,58.51
2022-11-06T23:43:51.657Z,58.63
2022-11-06T23:46:03.706Z,58.50
2022-11-06T23:48:14.552Z,58.51
2022-11-06T23:50:19.757Z,58.44
2022-11-06T23:52:24.402Z,58.42
2022-11-06T23:54:26.408Z,58.59
2022-11-06T23:56:34.834Z,58.61
